createdAt,value
2022-10-10T00:00:37.761Z,78.45
2022-10-10T00:03:04.744Z,78.54
2022-10-10T00:05:31.409Z,78.38
2022-10-10T00:07:58.053Z,79.03
2022-10-10T00:10:25.057Z,79.44
2022-10-10T00:12:52.042Z,78.87
2022-10-10T00:15:19.071Z,79.12
2022-10-10T00:17:45.802Z,79.24
2022-10-10T00:20:16.137Z,79.07
2022-10-10T00:22:42.777Z,78.65
2022-10-10T00:25:09.698Z,78.65
2022-10-10T00:27:36.640Z,78.82
2022-10-10T00:30:04.632Z,79.32
2022-10-10T00:32:31.376Z,79.82
2022-10-10T00:34:58.023Z,79.16
2022-10-10T00:37:24.718Z,79.36
2022-10-10T00:39:51.356Z,79.23
2022-10-10T00:42:18.120Z,79.39
2022-10-10T00:44:45.712Z,79.36
2022-10-10T00:47:12.616Z,79.08
2022-10-10T00:49:41.030Z,79.65
2022-10-10T00:52:09.785Z,79.54
2022-10-10T00:54:36.842Z,79.46
2022-10-10T00:57:13.054Z,79.49
2022-10-10T00:59:41.002Z,79.51
2022-10-10T01:02:07.608Z,79.29
2022-10-10T01:04:45.629Z,79.49
2022-10-10T01:07:21.511Z,79.46
2022-10-10T01:09:48.384Z,79.48
2022-10-10T01:12:23.426Z,79.49
2022-10-10T01:15:08.409Z,79.84
2022-10-10T01:17:41.339Z,79.41
2022-10-10T01:20:37.900Z,79.88
2022-10-10T01:23:38.640Z,79.98
2022-10-10T01:26:31.533Z,79.30
2022-10-10T01:29:21.946Z,79.22
2022-10-10T01:31:49.248Z,79.57
2022-10-10T01:34:27.535Z,79.93
2022-10-10T01:37:21.244Z,80.08
2022-10-10T01:40:04.667Z,79.36
2022-10-10T01:42:35.677Z,79.92
2022-10-10T01:45:02.336Z,79.42
2022-10-10T01:47:28.985Z,79.28
2022-10-10T01:49:59.131Z,79.90
2022-10-10T01:52:41.935Z,79.42
2022-10-10T01:55:33.298Z,80.32
2022-10-10T01:58:21.103Z,79.61
2022-10-10T02:00:56.422Z,79.81
2022-10-10T02:03:29.290Z,80.31
2022-10-10T02:06:13.152Z,80.29
2022-10-10T02:09:03.502Z,80.94
2022-10-10T02:11:30.126Z,80.95
2022-10-10T02:14:00.488Z,80.74
2022-10-10T02:16:41.562Z,80.72
2022-10-10T02:19:09.286Z,81.17
2022-10-10T02:21:35.948Z,81.22
2022-10-10T02:24:03.925Z,81.97
2022-10-10T02:26:30.537Z,81.53
2022-10-10T02:28:59.834Z,81.55
2022-10-10T02:31:39.855Z,82.60
2022-10-10T02:34:09.898Z,82.43
2022-10-10T02:36:36.538Z,82.21
2022-10-10T02:39:03.419Z,82.74
2022-10-10T02:41:30.076Z,82.63
2022-10-10T02:43:56.777Z,82.92
2022-10-10T02:46:23.618Z,82.85
2022-10-10T02:48:50.283Z,82.92
2022-10-10T02:51:16.970Z,82.58
2022-10-10T02:53:43.618Z,82.83
2022-10-10T02:56:10.559Z,82.91
2022-10-10T02:58:37.183Z,83.05
2022-10-10T03:01:03.907Z,82.86
2022-10-10T03:03:30.627Z,83.13
2022-10-10T03:05:57.293Z,83.30
2022-10-10T03:08:23.973Z,83.69
2022-10-10T03:10:57.564Z,84.32
2022-10-10T03:13:24.392Z,84.74
2022-10-10T03:15:51.125Z,85.44
2022-10-10T03:18:17.787Z,85.83
2022-10-10T03:20:50.887Z,85.42
2022-10-10T03:23:17.536Z,86.09
2022-10-10T03:25:44.224Z,86.47
2022-10-10T03:28:11.336Z,86.18
2022-10-10T03:30:38.424Z,86.31
2022-10-10T03:33:05.637Z,86.21
2022-10-10T03:35:32.354Z,86.29
2022-10-10T03:37:59.241Z,86.62
2022-10-10T03:40:26.417Z,86.97
2022-10-10T03:42:53.494Z,86.43
2022-10-10T03:45:20.307Z,86.56
2022-10-10T03:47:46.960Z,86.74
2022-10-10T03:50:13.580Z,86.21
2022-10-10T03:52:40.236Z,85.73
2022-10-10T03:55:07.229Z,85.16
2022-10-10T03:57:33.904Z,84.64
2022-10-10T04:00:00.539Z,84.49
2022-10-10T04:02:27.184Z,84.39
2022-10-10T04:04:53.871Z,84.42
2022-10-10T04:07:20.684Z,84.09
2022-10-10T04:09:47.302Z,83.63
2022-10-10T04:12:13.980Z,83.36
2022-10-10T04:14:40.628Z,83.47
2022-10-10T04:17:07.243Z,83.51
2022-10-10T04:19:33.894Z,83.11
2022-10-10T04:22:00.539Z,83.25
2022-10-10T04:24:27.208Z,82.92
2022-10-10T04:26:53.945Z,83.34
2022-10-10T04:29:20.616Z,83.37
2022-10-10T04:31:47.317Z,83.02
2022-10-10T04:34:15.159Z,82.49
2022-10-10T04:36:42.079Z,82.89
2022-10-10T04:39:09.285Z,82.66
2022-10-10T04:41:35.907Z,82.65
2022-10-10T04:44:02.564Z,82.28
2022-10-10T04:46:29.239Z,82.53
2022-10-10T04:48:55.911Z,82.53
2022-10-10T04:51:22.680Z,82.29
2022-10-10T04:53:50.540Z,82.67
2022-10-10T04:56:17.440Z,83.22
2022-10-10T04:58:44.034Z,83.26
2022-10-10T05:01:10.680Z,83.07
2022-10-10T05:03:37.393Z,82.97
2022-10-10T05:06:04.106Z,83.04
2022-10-10T05:08:30.731Z,82.75
2022-10-10T05:10:57.492Z,82.95
2022-10-10T05:13:24.208Z,83.47
2022-10-10T05:15:51.961Z,83.09
2022-10-10T05:18:22.106Z,83.23
2022-10-10T05:20:48.866Z,83.42
2022-10-10T05:23:16.017Z,83.33
2022-10-10T05:25:48.055Z,83.63
2022-10-10T05:28:14.741Z,83.69
2022-10-10T05:30:41.458Z,84.00
2022-10-10T05:33:08.220Z,84.26
2022-10-10T05:35:34.876Z,84.07
2022-10-10T05:38:01.626Z,84.42
2022-10-10T05:40:28.353Z,84.32
2022-10-10T05:42:55.046Z,84.00
2022-10-10T05:45:21.737Z,84.03
2022-10-10T05:47:48.422Z,84.36
2022-10-10T05:50:38.697Z,83.96
2022-10-10T05:53:06.913Z,84.01
2022-10-10T05:55:33.808Z,83.36
2022-10-10T05:58:00.434Z,83.61
2022-10-10T06:00:27.141Z,82.86
2022-10-10T06:02:54.422Z,82.89
2022-10-10T06:05:21.376Z,82.66
2022-10-10T06:08:04.676Z,82.76
2022-10-10T06:10:37.332Z,82.42
2022-10-10T06:13:03.996Z,82.13
2022-10-10T06:15:30.786Z,82.29
2022-10-10T06:17:57.597Z,82.33
2022-10-10T06:20:24.262Z,82.94
2022-10-10T06:22:51.633Z,83.13
2022-10-10T06:25:38.438Z,82.60
2022-10-10T06:28:05.265Z,82.64
2022-10-10T06:30:32.275Z,82.81
2022-10-10T06:32:59.123Z,82.65
2022-10-10T06:35:26.146Z,82.50
2022-10-10T06:37:52.780Z,82.83
2022-10-10T06:40:19.412Z,83.34
2022-10-10T06:42:46.030Z,84.50
2022-10-10T06:45:12.649Z,84.63
2022-10-10T06:47:39.996Z,84.48
2022-10-10T06:50:06.806Z,84.27
2022-10-10T06:52:33.651Z,84.44
2022-10-10T06:55:00.296Z,84.90
2022-10-10T06:57:28.018Z,86.53
2022-10-10T06:59:54.629Z,87.33
2022-10-10T07:02:21.301Z,87.69
2022-10-10T07:04:47.947Z,87.84
2022-10-10T07:07:14.558Z,87.83
2022-10-10T07:09:41.226Z,87.58
2022-10-10T07:12:07.962Z,87.53
2022-10-10T07:14:34.534Z,86.22
2022-10-10T07:17:01.215Z,84.63
2022-10-10T07:19:28.119Z,83.84
2022-10-10T07:21:54.738Z,83.54
2022-10-10T07:24:21.378Z,81.48
2022-10-10T07:26:48.050Z,79.08
2022-10-10T07:29:14.747Z,77.72
2022-10-10T07:31:41.404Z,77.71
2022-10-10T07:34:08.097Z,77.40
2022-10-10T07:36:34.913Z,76.31
2022-10-10T07:39:01.545Z,75.19
2022-10-10T07:41:28.314Z,71.19
2022-10-10T07:43:56.099Z,69.65
2022-10-10T07:46:22.780Z,66.36
2022-10-10T07:48:49.452Z,58.85
2022-10-10T07:51:16.395Z,54.67
2022-10-10T07:53:44.415Z,53.38
2022-10-10T07:56:11.599Z,45.74
2022-10-10T07:58:38.388Z,41.15
2022-10-10T08:01:09.209Z,41.20
2022-10-10T08:03:36.210Z,38.62
2022-10-10T08:06:04.339Z,33.88
2022-10-10T08:08:34.130Z,34.74
2022-10-10T08:11:01.458Z,33.49
2022-10-10T08:13:28.132Z,33.13
2022-10-10T08:15:54.799Z,29.80
2022-10-10T08:18:21.502Z,28.66
2022-10-10T08:20:48.152Z,29.02
2022-10-10T08:23:14.797Z,30.08
2022-10-10T08:25:41.450Z,30.94
2022-10-10T08:28:08.149Z,31.95
2022-10-10T08:30:34.831Z,33.85
2022-10-10T08:33:01.720Z,35.11
2022-10-10T08:35:28.383Z,36.48
2022-10-10T08:37:55.243Z,37.59
2022-10-10T08:40:21.969Z,38.28
2022-10-10T08:42:52.992Z,39.92
2022-10-10T08:45:25.379Z,41.54
2022-10-10T08:48:00.295Z,43.54
2022-10-10T08:50:32.971Z,45.88
2022-10-10T08:53:06.386Z,46.27
2022-10-10T08:55:34.599Z,47.12
2022-10-10T08:58:03.353Z,47.40
2022-10-10T09:00:33.130Z,47.95
2022-10-10T09:03:01.575Z,48.95
2022-10-10T09:05:31.879Z,48.78
2022-10-10T09:08:37.223Z,48.36
2022-10-10T09:11:05.185Z,49.54
2022-10-10T09:13:36.830Z,49.67
2022-10-10T09:16:08.588Z,49.04
2022-10-10T09:18:46.420Z,49.09
2022-10-10T09:21:16.572Z,49.45
2022-10-10T09:23:59.922Z,50.26
2022-10-10T09:26:27.990Z,50.47
2022-10-10T09:29:04.853Z,51.61
2022-10-10T09:31:37.398Z,51.55
2022-10-10T09:34:31.096Z,51.70
2022-10-10T09:37:00.505Z,51.08
2022-10-10T09:39:37.693Z,51.27
2022-10-10T09:42:05.447Z,53.02
2022-10-10T09:44:32.146Z,50.45
2022-10-10T09:46:59.769Z,49.82
2022-10-10T09:49:26.411Z,48.64
2022-10-10T09:51:53.117Z,48.39
2022-10-10T09:54:20.085Z,48.59
2022-10-10T09:56:52.095Z,49.77
2022-10-10T09:59:42.517Z,48.06
2022-10-10T10:02:20.208Z,46.54
2022-10-10T10:04:47.656Z,48.88
2022-10-10T10:07:33.653Z,47.72
2022-10-10T10:10:21.360Z,50.47
2022-10-10T10:12:48.247Z,50.52
2022-10-10T10:15:25.454Z,51.58
2022-10-10T10:18:10.908Z,51.70
2022-10-10T10:20:39.649Z,49.31
2022-10-10T10:23:31.499Z,50.15
2022-10-10T10:26:06.518Z,50.04
2022-10-10T10:28:42.566Z,49.17
2022-10-10T10:31:20.672Z,49.03
2022-10-10T10:34:12.184Z,48.75
2022-10-10T10:36:41.742Z,49.38
2022-10-10T10:39:47.309Z,48.66
2022-10-10T10:42:29.181Z,49.04
2022-10-10T10:44:59.679Z,49.25
2022-10-10T10:47:57.591Z,50.29
2022-10-10T10:50:41.456Z,49.90
2022-10-10T10:53:29.991Z,50.82
2022-10-10T10:56:04.985Z,49.29
2022-10-10T10:59:24.101Z,50.25
2022-10-10T11:01:56.915Z,49.57
2022-10-10T11:05:22.783Z,48.87
2022-10-10T11:07:25.019Z,47.76
2022-10-10T11:10:08.828Z,49.83
2022-10-10T11:12:47.502Z,47.41
2022-10-10T11:15:20.987Z,49.66
2022-10-10T11:18:03.594Z,48.56
2022-10-10T11:20:36.990Z,50.27
2022-10-10T11:23:22.683Z,48.94
2022-10-10T11:25:50.462Z,48.66
2022-10-10T11:28:40.277Z,47.86
2022-10-10T11:31:28.334Z,48.15
2022-10-10T11:33:59.233Z,48.29
2022-10-10T11:36:29.025Z,48.46
2022-10-10T11:39:05.001Z,48.91
2022-10-10T11:41:34.674Z,49.15
2022-10-10T11:44:22.380Z,49.02
2022-10-10T11:47:07.552Z,47.75
2022-10-10T11:49:37.112Z,48.76
2022-10-10T11:52:31.931Z,49.58
2022-10-10T11:55:09.399Z,48.96
2022-10-10T11:57:45.854Z,48.02
2022-10-10T12:00:17.033Z,48.71
2022-10-10T12:02:44.969Z,49.02
2022-10-10T12:05:25.781Z,49.31
2022-10-10T12:08:00.044Z,48.54
2022-10-10T12:10:44.378Z,47.39
2022-10-10T12:13:32.900Z,48.67
2022-10-10T12:16:03.381Z,48.15
2022-10-10T12:18:32.462Z,48.48
2022-10-10T12:21:04.314Z,47.78
2022-10-10T12:23:31.389Z,49.13
2022-10-10T12:25:58.370Z,47.69
2022-10-10T12:28:37.001Z,49.45
2022-10-10T12:31:06.523Z,47.86
2022-10-10T12:33:33.179Z,48.00
2022-10-10T12:36:41.377Z,48.92
2022-10-10T12:39:11.030Z,48.55
2022-10-10T12:41:47.226Z,48.13
2022-10-10T12:44:21.669Z,49.72
2022-10-10T12:46:51.353Z,49.96
2022-10-10T12:49:22.436Z,48.50
2022-10-10T12:52:12.583Z,48.25
2022-10-10T12:54:44.036Z,48.49
2022-10-10T12:57:46.362Z,50.50
2022-10-10T13:00:18.298Z,50.80
2022-10-10T13:02:46.928Z,50.92
2022-10-10T13:05:15.590Z,50.42
2022-10-10T13:07:42.536Z,49.15
2022-10-10T13:10:20.491Z,50.27
2022-10-10T13:12:47.169Z,50.73
2022-10-10T13:15:20.779Z,50.70
2022-10-10T13:17:47.435Z,51.52
2022-10-10T13:20:43.436Z,50.62
2022-10-10T13:23:14.182Z,51.18
2022-10-10T13:25:40.859Z,50.43
2022-10-10T13:28:18.189Z,49.29
2022-10-10T13:30:48.791Z,49.56
2022-10-10T13:33:19.335Z,49.59
2022-10-10T13:35:46.532Z,48.79
2022-10-10T13:38:13.755Z,49.89
2022-10-10T13:40:42.104Z,49.99
2022-10-10T13:43:16.081Z,51.13
2022-10-10T13:45:50.104Z,49.19
2022-10-10T13:48:20.653Z,49.67
2022-10-10T13:50:55.174Z,49.96
2022-10-10T13:53:28.899Z,50.22
2022-10-10T13:56:19.455Z,49.97
2022-10-10T13:58:56.186Z,51.88
2022-10-10T14:01:47.516Z,50.68
2022-10-10T14:04:52.384Z,51.47
2022-10-10T14:07:26.865Z,51.67
2022-10-10T14:09:59.745Z,51.48
2022-10-10T14:12:32.522Z,51.66
2022-10-10T14:15:00.067Z,51.78
2022-10-10T14:17:26.953Z,51.05
2022-10-10T14:19:53.726Z,51.54
2022-10-10T14:22:20.489Z,51.35
2022-10-10T14:24:47.470Z,52.21
2022-10-10T14:27:20.235Z,52.39
2022-10-10T14:29:47.023Z,52.65
2022-10-10T14:32:16.762Z,51.67
2022-10-10T14:34:43.535Z,51.94
2022-10-10T14:37:22.723Z,52.16
2022-10-10T14:39:49.601Z,51.57
2022-10-10T14:42:16.912Z,51.60
2022-10-10T14:44:43.718Z,51.77
2022-10-10T14:47:21.805Z,51.42
2022-10-10T14:49:48.682Z,51.75
2022-10-10T14:52:15.749Z,52.50
2022-10-10T14:54:42.439Z,53.26
2022-10-10T14:57:10.513Z,52.33
2022-10-10T14:59:47.407Z,52.77
2022-10-10T15:02:18.383Z,52.72
2022-10-10T15:04:45.171Z,51.75
2022-10-10T15:07:13.881Z,52.06
2022-10-10T15:09:51.514Z,52.20
2022-10-10T15:12:27.864Z,53.02
2022-10-10T15:14:54.592Z,52.96
2022-10-10T15:17:21.240Z,52.78
2022-10-10T15:19:47.869Z,52.74
2022-10-10T15:22:14.522Z,53.55
2022-10-10T15:24:41.193Z,53.59
2022-10-10T15:27:07.829Z,54.13
2022-10-10T15:29:34.623Z,53.64
2022-10-10T15:32:01.991Z,53.58
2022-10-10T15:34:28.688Z,53.45
2022-10-10T15:36:55.366Z,53.84
2022-10-10T15:39:22.080Z,54.11
2022-10-10T15:41:48.691Z,53.55
2022-10-10T15:44:17.407Z,54.38
2022-10-10T15:46:44.554Z,53.80
2022-10-10T15:49:11.492Z,54.09
2022-10-10T15:51:38.180Z,53.60
2022-10-10T15:54:04.913Z,53.74
2022-10-10T15:56:31.539Z,53.99
2022-10-10T15:58:58.695Z,53.79
2022-10-10T16:01:25.657Z,54.08
2022-10-10T16:03:52.363Z,53.64
2022-10-10T16:06:19.888Z,54.53
2022-10-10T16:08:52.757Z,54.71
2022-10-10T16:11:30.871Z,55.00
2022-10-10T16:13:59.212Z,55.04
2022-10-10T16:16:25.812Z,54.65
2022-10-10T16:18:52.450Z,55.42
2022-10-10T16:21:20.738Z,55.78
2022-10-10T16:23:47.776Z,55.79
2022-10-10T16:26:17.352Z,55.89
2022-10-10T16:28:44.137Z,55.73
2022-10-10T16:31:12.830Z,56.35
2022-10-10T16:33:39.646Z,56.35
2022-10-10T16:36:13.677Z,56.76
2022-10-10T16:38:40.385Z,57.09
2022-10-10T16:41:15.962Z,56.78
2022-10-10T16:43:50.534Z,57.08
2022-10-10T16:46:20.315Z,56.89
2022-10-10T16:48:47.034Z,57.47
2022-10-10T16:51:15.820Z,57.25
2022-10-10T16:53:42.581Z,57.32
2022-10-10T16:56:11.787Z,57.14
2022-10-10T16:58:38.998Z,57.13
2022-10-10T17:01:14.263Z,57.19
2022-10-10T17:03:41.175Z,56.99
2022-10-10T17:06:15.982Z,57.17
2022-10-10T17:08:45.221Z,57.15
2022-10-10T17:11:11.940Z,57.37
2022-10-10T17:13:38.781Z,58.00
2022-10-10T17:16:34.101Z,57.38
2022-10-10T17:18:53.385Z,57.38
2022-10-10T17:21:21.713Z,57.00
2022-10-10T17:23:50.658Z,57.26
2022-10-10T17:26:22.542Z,57.16
2022-10-10T17:28:50.160Z,56.82
2022-10-10T17:31:17.525Z,57.26
2022-10-10T17:33:49.721Z,56.94
2022-10-10T17:36:22.317Z,56.86
2022-10-10T17:38:49.034Z,56.94
2022-10-10T17:41:16.694Z,56.73
2022-10-10T17:43:43.555Z,57.32
2022-10-10T17:46:34.468Z,57.60
2022-10-10T17:49:03.453Z,57.97
2022-10-10T17:51:30.118Z,57.87
2022-10-10T17:53:59.036Z,58.27
2022-10-10T17:56:25.651Z,58.34
2022-10-10T17:58:52.279Z,58.30
2022-10-10T18:01:19.449Z,59.36
2022-10-10T18:03:46.325Z,59.77
2022-10-10T18:06:14.883Z,59.92
2022-10-10T18:08:43.995Z,60.13
2022-10-10T18:11:18.726Z,60.19
2022-10-10T18:13:45.420Z,60.53
2022-10-10T18:16:13.744Z,60.64
2022-10-10T18:18:41.275Z,60.28
2022-10-10T18:21:08.511Z,60.58
2022-10-10T18:23:35.386Z,60.84
2022-10-10T18:26:05.975Z,60.25
2022-10-10T18:28:33.610Z,60.43
2022-10-10T18:31:00.831Z,60.80
2022-10-10T18:33:27.541Z,61.02
2022-10-10T18:35:54.151Z,60.60
2022-10-10T18:38:20.774Z,60.91
2022-10-10T18:40:47.506Z,60.35
2022-10-10T18:43:14.118Z,60.74
2022-10-10T18:45:40.759Z,60.59
2022-10-10T18:48:07.445Z,61.05
2022-10-10T18:50:34.111Z,60.10
2022-10-10T18:53:00.727Z,60.79
2022-10-10T18:55:30.455Z,60.83
2022-10-10T18:57:57.998Z,60.81
2022-10-10T19:00:27.575Z,60.75
2022-10-10T19:02:54.268Z,60.59
2022-10-10T19:05:20.846Z,61.04
2022-10-10T19:07:47.503Z,60.79
2022-10-10T19:10:14.126Z,60.89
2022-10-10T19:12:45.140Z,60.68
2022-10-10T19:15:14.924Z,60.09
2022-10-10T19:17:41.524Z,60.35
2022-10-10T19:20:08.473Z,59.85
2022-10-10T19:22:35.203Z,60.45
2022-10-10T19:25:03.021Z,59.85
2022-10-10T19:27:29.695Z,60.03
2022-10-10T19:29:56.339Z,60.17
2022-10-10T19:32:22.988Z,59.82
2022-10-10T19:34:49.653Z,59.87
2022-10-10T19:37:16.549Z,60.35
2022-10-10T19:39:43.287Z,59.75
2022-10-10T19:42:09.857Z,59.93
2022-10-10T19:44:36.624Z,60.24
2022-10-10T19:47:03.329Z,59.81
2022-10-10T19:49:30.636Z,60.13
2022-10-10T19:51:57.305Z,59.82
2022-10-10T19:54:24.165Z,60.43
2022-10-10T19:56:51.046Z,60.31
2022-10-10T19:59:17.807Z,60.42
2022-10-10T20:01:44.505Z,60.13
2022-10-10T20:04:12.106Z,60.46
2022-10-10T20:06:41.212Z,60.00
2022-10-10T20:09:10.827Z,59.55
2022-10-10T20:11:38.216Z,59.79
2022-10-10T20:14:05.009Z,59.91
2022-10-10T20:16:31.718Z,59.93
2022-10-10T20:18:58.665Z,60.22
2022-10-10T20:21:31.500Z,59.84
2022-10-10T20:24:00.039Z,59.88
2022-10-10T20:26:26.917Z,60.29
2022-10-10T20:28:54.112Z,60.41
2022-10-10T20:31:25.451Z,60.19
2022-10-10T20:33:53.641Z,59.39
2022-10-10T20:36:20.784Z,59.40
2022-10-10T20:38:57.981Z,59.69
2022-10-10T20:41:25.934Z,59.75
2022-10-10T20:43:59.361Z,59.88
2022-10-10T20:46:27.665Z,59.39
2022-10-10T20:48:54.992Z,59.72
2022-10-10T20:51:21.693Z,59.85
2022-10-10T20:53:57.535Z,60.04
2022-10-10T20:56:24.292Z,59.61
2022-10-10T20:58:50.896Z,58.80
2022-10-10T21:01:18.687Z,59.25
2022-10-10T21:03:46.300Z,59.76
2022-10-10T21:06:23.781Z,59.44
2022-10-10T21:08:51.216Z,59.84
2022-10-10T21:11:18.045Z,58.91
2022-10-10T21:13:45.851Z,58.82
2022-10-10T21:16:15.590Z,58.82
2022-10-10T21:18:44.507Z,58.99
2022-10-10T21:21:16.477Z,59.47
2022-10-10T21:23:44.921Z,59.56
2022-10-10T21:26:19.205Z,59.25
2022-10-10T21:28:48.600Z,59.83
2022-10-10T21:31:16.266Z,59.47
2022-10-10T21:33:43.081Z,58.49
2022-10-10T21:36:10.276Z,58.94
2022-10-10T21:38:37.786Z,59.23
2022-10-10T21:41:08.745Z,59.61
2022-10-10T21:43:40.277Z,59.80
2022-10-10T21:46:08.603Z,59.81
2022-10-10T21:48:35.374Z,59.63
2022-10-10T21:51:02.099Z,59.94
2022-10-10T21:53:28.911Z,59.32
2022-10-10T21:55:55.786Z,59.69
2022-10-10T21:58:25.618Z,59.70
2022-10-10T22:00:52.259Z,59.92
2022-10-10T22:03:18.906Z,59.73
2022-10-10T22:05:45.569Z,59.78
2022-10-10T22:08:12.183Z,59.99
2022-10-10T22:10:40.467Z,60.01
2022-10-10T22:13:07.120Z,60.10
2022-10-10T22:15:33.871Z,59.54
2022-10-10T22:18:00.459Z,59.67
2022-10-10T22:20:27.083Z,59.29
2022-10-10T22:22:53.681Z,59.62
2022-10-10T22:25:20.438Z,58.60
2022-10-10T22:27:47.061Z,59.04
2022-10-10T22:30:14.103Z,59.38
2022-10-10T22:32:40.763Z,59.42
2022-10-10T22:35:08.256Z,59.34
2022-10-10T22:37:36.553Z,59.22
2022-10-10T22:40:03.471Z,59.57
2022-10-10T22:42:30.078Z,59.50
2022-10-10T22:44:56.721Z,59.45
2022-10-10T22:47:23.385Z,58.81
2022-10-10T22:49:49.985Z,59.01
2022-10-10T22:52:16.594Z,59.07
2022-10-10T22:54:43.289Z,59.13
2022-10-10T22:57:09.885Z,58.83
2022-10-10T22:59:36.655Z,58.33
2022-10-10T23:02:03.314Z,58.53
2022-10-10T23:04:30.077Z,58.45
2022-10-10T23:06:56.717Z,57.94
2022-10-10T23:09:23.357Z,57.82
2022-10-10T23:11:49.996Z,58.13
2022-10-10T23:14:18.723Z,57.72
2022-10-10T23:16:45.424Z,57.52
2022-10-10T23:19:12.014Z,57.65
2022-10-10T23:21:38.636Z,58.31
2022-10-10T23:24:05.664Z,58.78
2022-10-10T23:26:32.376Z,58.40
2022-10-10T23:28:59.063Z,59.06
2022-10-10T23:31:25.686Z,58.66
2022-10-10T23:33:52.349Z,58.17
2022-10-10T23:36:19.012Z,58.60
2022-10-10T23:38:45.655Z,58.31
2022-10-10T23:41:12.495Z,58.06
2022-10-10T23:43:39.236Z,57.53
2022-10-10T23:46:06.425Z,57.68
2022-10-10T23:48:33.453Z,57.05
2022-10-10T23:51:00.072Z,56.52
2022-10-10T23:53:26.645Z,57.22
2022-10-10T23:55:53.297Z,56.71
2022-10-10T23:58:19.960Z,57.36
